createdAt,value
2023-01-23T00:08:00.005Z,1
2023-01-23T00:17:59.857Z,1
2023-01-23T00:28:00.921Z,1
2023-01-23T00:37:59.741Z,1
2023-01-23T00:48:00.455Z,1
2023-01-23T00:57:59.548Z,1
2023-01-23T01:07:59.471Z,1
2023-01-23T01:17:59.431Z,1
2023-01-23T01:27:59.333Z,1
2023-01-23T01:37:59.279Z,1
2023-01-23T01:47:59.231Z,1
2023-01-23T01:57:59.423Z,1
2023-01-23T02:07:59.259Z,1
2023-01-23T02:17:59.113Z,1
2023-01-23T02:27:58.911Z,1
2023-01-23T02:37:58.942Z,1
2023-01-23T02:47:58.800Z,1
2023-01-23T02:57:58.734Z,1
2023-01-23T03:07:58.643Z,1
2023-01-23T03:17:58.662Z,1
2023-01-23T03:27:58.486Z,1
2023-01-23T03:37:58.417Z,1
2023-01-23T03:47:58.374Z,1
2023-01-23T03:57:58.252Z,1
2023-01-23T04:07:58.225Z,1
2023-01-23T04:17:58.105Z,1
2023-01-23T04:27:58.058Z,1
2023-01-23T04:37:57.989Z,1
2023-01-23T04:47:57.931Z,1
2023-01-23T04:57:57.911Z,1
2023-01-23T05:07:58.878Z,1
2023-01-23T05:17:57.730Z,1
2023-01-23T05:27:57.630Z,1
2023-01-23T05:37:57.546Z,1
2023-01-23T05:47:57.486Z,1
2023-01-23T05:57:57.374Z,1
2023-01-23T06:07:57.331Z,1
2023-01-23T06:17:57.338Z,7
2023-01-23T06:27:57.162Z,5
2023-01-23T06:37:57.220Z,6
2023-01-23T06:47:57.002Z,9
2023-01-23T06:57:56.957Z,10
2023-01-23T07:07:57.898Z,14
2023-01-23T07:17:56.980Z,20
2023-01-23T07:27:56.748Z,25
2023-01-23T07:37:56.669Z,27
2023-01-23T07:47:56.590Z,28
2023-01-23T07:57:56.567Z,33
2023-01-23T08:08:12.007Z,40
2023-01-23T08:17:56.358Z,48
2023-01-23T08:27:56.470Z,48
2023-01-23T08:37:56.220Z,43
2023-01-23T08:47:56.155Z,48
2023-01-23T08:57:56.175Z,55
2023-01-23T09:07:56.396Z,64
2023-01-23T09:17:58.667Z,69
2023-01-23T09:27:55.904Z,75
2023-01-23T09:37:58.770Z,78
2023-01-23T09:47:55.725Z,89
2023-01-23T09:57:55.681Z,96
2023-01-23T10:07:55.634Z,99
2023-01-23T10:17:55.579Z,99
2023-01-23T10:27:55.433Z,99
2023-01-23T10:37:55.370Z,99
2023-01-23T10:47:55.591Z,99
2023-01-23T10:57:55.195Z,99
2023-01-23T11:07:55.162Z,99
2023-01-23T11:17:55.191Z,99
2023-01-23T11:27:54.992Z,99
2023-01-23T11:37:54.915Z,99
2023-01-23T11:47:54.850Z,99
2023-01-23T11:57:55.062Z,99
2023-01-23T12:07:56.055Z,98
2023-01-23T12:17:54.661Z,99
2023-01-23T12:27:54.679Z,99
2023-01-23T12:37:54.507Z,76
2023-01-23T12:47:54.444Z,92
2023-01-23T12:58:00.067Z,99
2023-01-23T13:07:54.291Z,99
2023-01-23T13:17:54.911Z,99
2023-01-23T13:27:54.141Z,99
2023-01-23T13:37:56.547Z,99
2023-01-23T14:27:54.766Z,99
2023-01-23T14:37:53.680Z,99
2023-01-23T14:48:05.299Z,99
2023-01-23T14:57:55.957Z,99
2023-01-23T15:07:53.803Z,99
2023-01-23T15:17:53.354Z,99
2023-01-23T15:27:53.263Z,99
2023-01-23T15:37:53.215Z,99
2023-01-23T15:47:53.144Z,99
2023-01-23T15:57:55.495Z,99
2023-01-23T16:07:53.815Z,99
2023-01-23T16:17:52.937Z,99
2023-01-23T16:27:52.956Z,99
2023-01-23T16:37:52.789Z,99
2023-01-23T16:47:55.408Z,99
2023-01-23T16:57:52.744Z,99
2023-01-23T17:07:52.650Z,99
2023-01-23T17:17:52.934Z,99
2023-01-23T17:28:07.283Z,99
2023-01-23T17:37:52.368Z,99
2023-01-23T17:47:52.295Z,99
2023-01-23T17:57:53.224Z,99
2023-01-23T18:07:54.098Z,1
2023-01-23T18:17:52.185Z,1
2023-01-23T18:27:54.749Z,1
2023-01-23T18:37:51.937Z,1
2023-01-23T18:47:51.859Z,1
2023-01-23T18:57:51.756Z,1
2023-01-23T19:07:51.840Z,1
2023-01-23T19:17:51.650Z,1
2023-01-23T19:27:51.564Z,1
2023-01-23T19:37:51.482Z,1
2023-01-23T19:47:51.407Z,1
2023-01-23T19:57:51.356Z,1
2023-01-23T20:07:51.359Z,1
2023-01-23T20:17:51.201Z,1
2023-01-23T20:27:51.164Z,1
2023-01-23T20:37:51.081Z,1
2023-01-23T20:47:51.004Z,99
2023-01-23T20:57:50.909Z,99
2023-01-23T21:07:50.837Z,82
2023-01-23T21:17:50.867Z,57
2023-01-23T21:27:50.709Z,43
2023-01-23T21:37:50.633Z,18
2023-01-23T21:47:50.533Z,15
2023-01-23T21:57:50.450Z,2
2023-01-23T22:07:50.407Z,1
2023-01-23T22:17:50.313Z,1
2023-01-23T22:27:50.262Z,1
2023-01-23T22:37:50.173Z,1
2023-01-23T22:47:50.105Z,1
2023-01-23T22:57:50.061Z,1
2023-01-23T23:07:49.987Z,1
2023-01-23T23:17:49.944Z,1
2023-01-23T23:27:49.809Z,1
2023-01-23T23:37:49.718Z,1
2023-01-23T23:47:49.773Z,1
2023-01-23T23:57:49.679Z,1
